createdAt,value
2019-02-16T00:02:01.463Z,3.20
2019-02-16T00:04:40.143Z,3.10
2019-02-16T00:07:11.321Z,3.00
2019-02-16T00:09:41.727Z,2.90
2019-02-16T00:12:11.997Z,2.70
2019-02-16T00:14:42.418Z,2.80
2019-02-16T00:17:12.798Z,2.90
2019-02-16T00:19:43.212Z,2.90
2019-02-16T00:22:13.561Z,2.80
2019-02-16T00:24:43.915Z,2.90
2019-02-16T00:27:14.225Z,2.80
2019-02-16T00:29:44.487Z,2.90
2019-02-16T00:32:18.446Z,2.90
2019-02-16T00:34:48.908Z,2.90
2019-02-16T00:37:19.332Z,3.10
2019-02-16T00:39:49.721Z,3.10
2019-02-16T00:42:20.093Z,3.10
2019-02-16T00:44:50.424Z,3.00
2019-02-16T00:47:20.786Z,2.90
2019-02-16T00:49:51.146Z,2.80
2019-02-16T00:52:21.556Z,2.80
2019-02-16T00:54:51.839Z,2.90
2019-02-16T00:57:22.289Z,2.80
2019-02-16T00:59:55.645Z,2.70
2019-02-16T01:02:25.936Z,2.70
2019-02-16T01:04:56.229Z,2.70
2019-02-16T01:07:26.668Z,2.90
2019-02-16T01:09:57.041Z,3.30
2019-02-16T01:12:27.447Z,3.20
2019-02-16T01:14:57.681Z,2.90
2019-02-16T01:17:28.143Z,2.80
2019-02-16T01:19:58.556Z,2.70
2019-02-16T01:22:28.898Z,2.70
2019-02-16T01:24:59.249Z,2.50
2019-02-16T01:27:29.770Z,2.40
2019-02-16T01:30:00.311Z,2.20
2019-02-16T01:32:30.800Z,2.10
2019-02-16T01:35:01.121Z,2.00
2019-02-16T01:37:31.448Z,1.90
2019-02-16T01:40:01.745Z,1.90
2019-02-16T01:42:36.257Z,1.90
2019-02-16T01:45:08.352Z,2.00
2019-02-16T01:47:38.711Z,1.90
2019-02-16T01:50:09.981Z,1.90
2019-02-16T01:52:41.823Z,1.70
2019-02-16T01:55:12.136Z,1.60
2019-02-16T01:57:42.513Z,1.60
2019-02-16T02:00:12.842Z,1.60
2019-02-16T02:02:43.157Z,1.50
2019-02-16T02:05:13.658Z,1.40
2019-02-16T02:07:44.033Z,1.40
2019-02-16T02:10:14.417Z,1.40
2019-02-16T02:12:44.823Z,1.40
2019-02-16T02:15:15.124Z,1.30
2019-02-16T02:17:45.579Z,1.30
2019-02-16T02:20:15.934Z,1.30
2019-02-16T02:22:46.357Z,1.10
2019-02-16T02:25:16.704Z,1.10
2019-02-16T02:27:47.107Z,1.10
2019-02-16T02:30:17.528Z,1.10
2019-02-16T02:32:47.978Z,1.00
2019-02-16T02:35:18.308Z,1.00
2019-02-16T02:37:48.695Z,1.00
2019-02-16T02:40:20.163Z,0.90
2019-02-16T02:42:54.277Z,0.80
2019-02-16T02:45:24.627Z,0.70
2019-02-16T02:47:54.903Z,0.60
2019-02-16T02:50:25.323Z,0.60
2019-02-16T02:52:56.679Z,0.60
2019-02-16T02:55:27.239Z,0.50
2019-02-16T02:57:57.597Z,0.50
2019-02-16T03:00:28.139Z,0.50
2019-02-16T03:02:58.565Z,0.50
2019-02-16T03:05:29.225Z,0.60
2019-02-16T03:07:59.736Z,0.60
2019-02-16T03:10:30.158Z,0.60
2019-02-16T03:13:01.746Z,0.60
2019-02-16T03:15:32.213Z,0.80
2019-02-16T03:18:02.630Z,0.80
2019-02-16T03:20:32.998Z,0.70
2019-02-16T03:23:23.484Z,0.60
2019-02-16T03:26:44.226Z,0.60
2019-02-16T03:29:25.973Z,0.50
2019-02-16T03:32:37.087Z,0.50
2019-02-16T03:35:34.345Z,0.50
2019-02-16T03:38:32.789Z,0.30
2019-02-16T03:41:03.119Z,0.30
2019-02-16T03:43:33.503Z,0.20
2019-02-16T03:46:03.889Z,0.20
2019-02-16T03:48:34.238Z,0.10
2019-02-16T03:51:04.535Z,0.20
2019-02-16T03:53:34.958Z,0.20
2019-02-16T03:56:05.393Z,0.10
2019-02-16T03:58:35.668Z,0.10
2019-02-16T04:01:05.947Z,0.00
2019-02-16T04:03:36.280Z,-0.10
2019-02-16T04:06:06.644Z,-0.20
2019-02-16T04:08:36.958Z,-0.30
2019-02-16T04:11:07.273Z,-0.30
2019-02-16T04:13:37.917Z,-0.30
2019-02-16T04:16:08.222Z,-0.30
2019-02-16T04:18:38.559Z,-0.20
2019-02-16T04:21:08.902Z,-0.20
2019-02-16T04:23:39.335Z,-0.20
2019-02-16T04:26:10.375Z,-0.30
2019-02-16T04:28:40.668Z,-0.50
2019-02-16T04:31:11.005Z,-0.50
2019-02-16T04:33:41.314Z,-0.50
2019-02-16T04:36:11.704Z,-0.50
2019-02-16T04:38:41.962Z,-0.60
2019-02-16T04:41:12.229Z,-0.60
2019-02-16T04:43:42.590Z,-0.50
2019-02-16T04:46:12.970Z,-0.50
2019-02-16T04:48:43.298Z,-0.40
2019-02-16T04:51:13.649Z,-0.50
2019-02-16T04:53:44.019Z,-0.60
2019-02-16T04:56:14.333Z,-0.70
2019-02-16T04:58:44.848Z,-0.60
2019-02-16T05:01:15.231Z,-0.40
2019-02-16T05:03:45.549Z,-0.40
2019-02-16T05:06:15.860Z,-0.50
2019-02-16T05:08:46.126Z,-0.50
2019-02-16T05:11:16.499Z,-0.60
2019-02-16T05:13:47.108Z,-0.50
2019-02-16T05:16:17.617Z,-0.50
2019-02-16T05:18:47.909Z,-0.50
2019-02-16T05:21:18.212Z,-0.60
2019-02-16T05:23:48.515Z,-0.60
2019-02-16T05:26:18.857Z,-0.60
2019-02-16T05:28:49.215Z,-0.70
2019-02-16T05:31:19.593Z,-0.70
2019-02-16T05:33:49.924Z,-0.70
2019-02-16T05:36:20.259Z,-0.70
2019-02-16T05:38:50.624Z,-0.70
2019-02-16T05:41:21.033Z,-0.60
2019-02-16T05:43:51.415Z,-0.50
2019-02-16T05:46:21.919Z,-0.50
2019-02-16T05:48:52.298Z,-0.50
2019-02-16T05:51:22.602Z,-0.60
2019-02-16T05:53:52.905Z,-0.70
2019-02-16T05:56:23.261Z,-0.90
2019-02-16T05:58:53.611Z,-1.00
2019-02-16T06:01:23.989Z,-1.10
2019-02-16T06:03:54.352Z,-1.10
2019-02-16T06:06:24.818Z,-1.20
2019-02-16T06:08:55.251Z,-1.20
2019-02-16T06:11:25.820Z,-1.10
2019-02-16T06:13:56.464Z,-1.00
2019-02-16T06:16:26.896Z,-1.00
2019-02-16T06:18:57.312Z,-1.00
2019-02-16T06:21:27.790Z,-1.00
2019-02-16T06:23:58.244Z,-0.90
2019-02-16T06:26:28.496Z,-0.80
2019-02-16T06:28:58.819Z,-0.80
2019-02-16T06:31:29.148Z,-0.70
2019-02-16T06:33:59.546Z,-0.60
2019-02-16T06:36:40.756Z,-0.50
2019-02-16T06:39:11.215Z,-0.50
2019-02-16T06:41:41.600Z,-0.50
2019-02-16T06:44:11.946Z,-0.60
2019-02-16T06:46:43.428Z,-0.60
2019-02-16T06:49:13.784Z,-0.70
2019-02-16T06:51:44.094Z,-0.80
2019-02-16T06:54:14.485Z,-0.90
2019-02-16T06:57:07.739Z,-0.90
2019-02-16T06:59:38.044Z,-1.00
2019-02-16T07:02:08.350Z,-0.90
2019-02-16T07:04:38.716Z,-0.80
2019-02-16T07:07:09.096Z,-0.70
2019-02-16T07:09:39.520Z,-0.70
2019-02-16T07:12:09.954Z,-0.40
2019-02-16T07:14:40.298Z,-0.40
2019-02-16T07:17:30.317Z,-0.30
2019-02-16T07:20:01.001Z,-0.10
2019-02-16T07:22:31.305Z,0.10
2019-02-16T07:25:01.763Z,0.20
2019-02-16T07:27:32.119Z,0.20
2019-02-16T07:30:02.532Z,0.30
2019-02-16T07:32:32.852Z,0.30
2019-02-16T07:35:03.232Z,0.50
2019-02-16T07:37:33.742Z,0.50
2019-02-16T07:40:04.900Z,0.60
2019-02-16T07:42:53.007Z,0.80
2019-02-16T07:45:42.709Z,0.90
2019-02-16T07:48:21.880Z,1.00
2019-02-16T07:51:13.961Z,1.00
2019-02-16T07:53:54.212Z,1.00
2019-02-16T07:56:31.261Z,1.20
2019-02-16T07:59:29.895Z,1.30
2019-02-16T08:02:08.216Z,1.40
2019-02-16T08:04:55.026Z,1.60
2019-02-16T08:07:33.874Z,1.80
2019-02-16T08:10:26.529Z,1.90
2019-02-16T08:13:28.281Z,2.00
2019-02-16T08:16:11.835Z,2.50
2019-02-16T08:18:51.106Z,2.90
2019-02-16T08:21:43.231Z,3.00
2019-02-16T08:24:44.761Z,3.10
2019-02-16T08:27:23.596Z,3.10
2019-02-16T08:30:10.351Z,3.10
2019-02-16T08:32:58.241Z,3.10
2019-02-16T08:35:47.614Z,3.20
2019-02-16T08:38:26.906Z,3.30
2019-02-16T08:41:15.326Z,3.40
2019-02-16T08:44:03.371Z,3.50
2019-02-16T08:46:58.602Z,3.60
2019-02-16T08:49:48.007Z,3.80
2019-02-16T08:52:37.659Z,4.00
2019-02-16T08:55:47.062Z,4.30
2019-02-16T08:58:51.532Z,4.60
2019-02-16T09:01:39.668Z,4.80
2019-02-16T09:04:27.790Z,5.10
2019-02-16T09:07:20.244Z,5.20
2019-02-16T09:10:15.570Z,5.40
2019-02-16T09:12:53.531Z,5.70
2019-02-16T09:15:52.318Z,5.90
2019-02-16T09:18:36.998Z,6.00
2019-02-16T09:21:29.324Z,6.10
2019-02-16T09:24:10.766Z,6.30
2019-02-16T09:26:59.292Z,6.50
2019-02-16T09:29:40.344Z,6.70
2019-02-16T09:32:35.415Z,7.10
2019-02-16T09:35:25.730Z,7.50
2019-02-16T09:38:13.761Z,7.80
2019-02-16T09:40:56.561Z,7.80
2019-02-16T09:43:54.907Z,7.90
2019-02-16T09:46:50.722Z,7.80
2019-02-16T09:49:46.004Z,8.00
2019-02-16T09:52:41.607Z,8.30
2019-02-16T09:55:31.033Z,8.50
2019-02-16T10:01:24.166Z,8.90
2019-02-16T10:04:04.877Z,9.60
2019-02-16T10:06:57.092Z,10.00
2019-02-16T10:09:44.931Z,10.30
2019-02-16T10:12:35.272Z,10.60
2019-02-16T10:15:28.516Z,10.80
2019-02-16T10:18:18.012Z,11.00
2019-02-16T10:20:58.752Z,11.30
2019-02-16T10:23:46.981Z,11.40
2019-02-16T10:26:34.932Z,11.50
2019-02-16T10:29:26.399Z,11.60
2019-02-16T10:32:08.222Z,11.70
2019-02-16T10:35:00.581Z,11.80
2019-02-16T10:37:57.052Z,11.80
2019-02-16T10:40:49.072Z,11.80
2019-02-16T10:44:09.034Z,12.00
2019-02-16T10:46:59.586Z,12.10
2019-02-16T10:49:47.721Z,12.20
2019-02-16T10:52:30.968Z,12.30
2019-02-16T10:55:38.905Z,12.50
2019-02-16T10:58:26.007Z,12.60
2019-02-16T11:01:15.646Z,12.80
2019-02-16T11:04:05.122Z,12.80
2019-02-16T11:06:40.492Z,13.00
2019-02-16T11:09:21.293Z,13.00
2019-02-16T11:12:09.441Z,13.00
2019-02-16T11:15:04.822Z,13.10
2019-02-16T11:18:03.884Z,13.10
2019-02-16T11:20:52.301Z,13.20
2019-02-16T11:23:54.145Z,13.30
2019-02-16T11:26:35.717Z,13.30
2019-02-16T11:29:24.007Z,13.30
2019-02-16T11:32:16.256Z,13.40
2019-02-16T11:34:57.243Z,13.50
2019-02-16T11:37:52.662Z,13.50
2019-02-16T11:40:41.783Z,13.50
2019-02-16T11:43:46.592Z,13.60
2019-02-16T11:46:34.527Z,13.60
2019-02-16T11:49:24.275Z,13.70
2019-02-16T11:52:06.471Z,13.80
2019-02-16T11:55:01.741Z,13.80
2019-02-16T11:57:52.253Z,13.90
2019-02-16T12:00:40.281Z,13.90
2019-02-16T12:03:25.536Z,13.90
2019-02-16T12:06:07.067Z,14.00
2019-02-16T12:09:05.162Z,14.00
2019-02-16T12:11:54.482Z,14.10
2019-02-16T12:14:49.974Z,14.10
2019-02-16T12:17:37.818Z,14.20
2019-02-16T12:20:33.410Z,14.30
2019-02-16T12:23:13.013Z,14.30
2019-02-16T12:26:15.212Z,14.20
2019-02-16T12:29:03.259Z,14.30
2019-02-16T12:32:02.106Z,14.30
2019-02-16T12:34:50.286Z,14.50
2019-02-16T12:37:52.123Z,14.60
2019-02-16T12:40:41.556Z,14.50
2019-02-16T12:43:29.184Z,14.50
2019-02-16T12:46:21.771Z,14.60
2019-02-16T12:49:14.528Z,14.60
2019-02-16T12:52:10.049Z,14.70
2019-02-16T12:54:53.003Z,14.80
2019-02-16T12:57:32.134Z,14.80
2019-02-16T13:00:36.841Z,14.80
2019-02-16T13:03:35.639Z,14.80
2019-02-16T13:06:18.831Z,14.70
2019-02-16T13:09:04.627Z,14.80
2019-02-16T13:11:52.812Z,14.90
2019-02-16T13:14:30.514Z,14.90
2019-02-16T13:17:07.113Z,14.90
2019-02-16T13:20:02.941Z,14.90
2019-02-16T13:22:51.335Z,14.90
2019-02-16T13:25:47.092Z,14.90
2019-02-16T13:28:39.908Z,15.00
2019-02-16T13:31:32.918Z,15.00
2019-02-16T13:34:37.617Z,15.00
2019-02-16T13:37:25.048Z,15.10
2019-02-16T13:40:14.538Z,15.00
2019-02-16T13:42:59.393Z,15.00
2019-02-16T13:46:04.206Z,15.00
2019-02-16T13:48:56.878Z,15.10
2019-02-16T13:51:40.227Z,15.10
2019-02-16T13:54:25.158Z,15.10
2019-02-16T13:57:13.491Z,15.10
2019-02-16T14:00:00.840Z,15.20
2019-02-16T14:02:42.845Z,15.30
2019-02-16T14:05:32.363Z,15.30
2019-02-16T14:08:20.583Z,15.20
2019-02-16T14:11:14.383Z,15.20
2019-02-16T14:13:55.743Z,15.10
2019-02-16T14:16:44.258Z,15.10
2019-02-16T14:19:14.751Z,15.10
2019-02-16T14:21:45.086Z,15.10
2019-02-16T14:50:01.066Z,14.80
2019-02-16T14:52:31.798Z,14.80
2019-02-16T14:55:02.199Z,14.80
2019-02-16T14:57:32.606Z,14.90
2019-02-16T15:00:03.357Z,14.80
2019-02-16T15:02:34.061Z,14.80
2019-02-16T15:05:04.471Z,14.70
2019-02-16T15:07:35.163Z,14.70
2019-02-16T15:10:06.254Z,14.60
2019-02-16T15:12:40.036Z,14.60
2019-02-16T15:15:15.169Z,14.50
2019-02-16T15:17:48.919Z,14.50
2019-02-16T15:20:19.657Z,14.40
2019-02-16T15:22:50.324Z,14.40
2019-02-16T15:25:20.908Z,14.30
2019-02-16T15:27:51.339Z,14.30
2019-02-16T15:30:22.033Z,14.30
2019-02-16T15:32:52.727Z,14.20
2019-02-16T15:35:23.709Z,14.20
2019-02-16T15:37:55.316Z,14.10
2019-02-16T15:40:26.151Z,14.10
2019-02-16T15:42:57.139Z,14.10
2019-02-16T15:45:27.741Z,14.00
2019-02-16T15:47:58.493Z,13.90
2019-02-16T15:50:29.458Z,13.70
2019-02-16T15:52:59.957Z,13.70
2019-02-16T15:55:30.543Z,13.60
2019-02-16T15:58:01.440Z,13.50
2019-02-16T16:00:32.144Z,13.40
2019-02-16T16:03:02.752Z,13.20
2019-02-16T16:05:33.534Z,13.00
2019-02-16T16:08:32.503Z,13.00
2019-02-16T16:11:18.867Z,12.90
2019-02-16T16:14:02.000Z,12.80
2019-02-16T16:17:03.314Z,12.70
2019-02-16T16:19:57.722Z,12.60
2019-02-16T16:23:04.160Z,12.40
2019-02-16T16:25:43.069Z,12.00
2019-02-16T16:28:26.808Z,11.70
2019-02-16T16:31:08.761Z,11.50
2019-02-16T16:34:00.638Z,11.10
2019-02-16T16:36:50.274Z,10.80
2019-02-16T16:39:57.946Z,10.70
2019-02-16T16:42:47.354Z,10.50
2019-02-16T16:45:37.039Z,10.20
2019-02-16T16:48:38.635Z,9.80
2019-02-16T16:51:31.109Z,9.60
2019-02-16T16:54:16.708Z,9.40
2019-02-16T16:57:04.581Z,9.20
2019-02-16T16:59:52.833Z,9.00
2019-02-16T17:02:36.064Z,8.80
2019-02-16T17:05:28.408Z,8.70
2019-02-16T17:08:26.713Z,8.60
2019-02-16T17:11:19.120Z,8.60
2019-02-16T17:14:07.358Z,8.70
2019-02-16T17:16:55.914Z,8.50
2019-02-16T17:19:39.335Z,8.30
2019-02-16T17:22:20.778Z,8.10
2019-02-16T17:25:16.438Z,8.00
2019-02-16T17:27:59.037Z,7.90
2019-02-16T17:30:44.586Z,7.90
2019-02-16T17:33:34.059Z,7.70
2019-02-16T17:36:26.794Z,7.60
2019-02-16T17:39:18.631Z,7.50
2019-02-16T17:41:59.775Z,7.40
2019-02-16T17:45:08.102Z,7.30
2019-02-16T17:48:00.714Z,7.40
2019-02-16T17:50:54.066Z,7.40
2019-02-16T17:53:49.659Z,7.20
2019-02-16T17:56:46.656Z,7.10
2019-02-16T17:59:16.747Z,7.00
2019-02-16T18:02:09.299Z,7.00
2019-02-16T18:04:58.721Z,7.00
2019-02-16T18:07:48.361Z,6.90
2019-02-16T18:10:37.928Z,7.00
2019-02-16T18:13:26.289Z,7.00
2019-02-16T18:16:13.784Z,6.90
2019-02-16T18:18:50.089Z,6.90
2019-02-16T18:21:35.173Z,6.80
2019-02-16T18:24:39.655Z,6.80
2019-02-16T18:27:38.514Z,6.70
2019-02-16T18:30:26.454Z,6.70
2019-02-16T18:33:15.220Z,6.60
2019-02-16T18:35:58.990Z,6.50
2019-02-16T18:38:47.571Z,6.50
2019-02-16T18:41:52.075Z,6.40
2019-02-16T18:44:48.127Z,6.20
2019-02-16T18:47:40.924Z,6.10
2019-02-16T18:50:33.172Z,6.10
2019-02-16T18:53:23.842Z,6.00
2019-02-16T18:56:28.984Z,6.00
2019-02-16T18:59:19.759Z,5.90
2019-02-16T19:02:09.262Z,5.90
2019-02-16T19:04:56.475Z,5.90
2019-02-16T19:07:55.115Z,5.80
2019-02-16T19:10:32.484Z,5.70
2019-02-16T19:13:31.207Z,5.60
2019-02-16T19:16:19.370Z,5.40
2019-02-16T19:19:28.332Z,5.30
2019-02-16T19:22:40.535Z,5.20
2019-02-16T19:25:17.975Z,5.10
2019-02-16T19:28:06.105Z,5.10
2019-02-16T19:31:04.449Z,5.10
2019-02-16T19:33:59.624Z,5.00
2019-02-16T19:36:44.941Z,5.00
2019-02-16T19:39:37.275Z,5.00
2019-02-16T19:42:34.179Z,4.80
2019-02-16T19:45:42.629Z,4.70
2019-02-16T19:48:38.771Z,4.80
2019-02-16T19:51:36.810Z,4.60
2019-02-16T19:54:29.126Z,4.70
2019-02-16T19:57:27.998Z,4.70
2019-02-16T20:00:16.630Z,4.60
2019-02-16T20:03:05.231Z,4.60
2019-02-16T20:05:56.193Z,4.60
2019-02-16T20:09:05.691Z,4.60
2019-02-16T20:12:03.314Z,4.60
2019-02-16T20:15:08.669Z,4.40
2019-02-16T20:18:00.457Z,4.30
2019-02-16T20:20:45.392Z,4.20
2019-02-16T20:23:42.697Z,4.30
2019-02-16T20:26:29.110Z,4.40
2019-02-16T20:32:49.880Z,4.20
2019-02-16T20:35:46.234Z,4.00
2019-02-16T20:38:25.434Z,3.90
2019-02-16T20:41:09.984Z,3.90
2019-02-16T20:44:02.969Z,3.90
2019-02-16T20:46:56.932Z,3.70
2019-02-16T20:49:38.385Z,3.70
2019-02-16T20:52:26.699Z,3.80
2019-02-16T20:55:05.670Z,3.80
2019-02-16T20:57:48.356Z,3.80
2019-02-16T21:00:31.136Z,3.70
2019-02-16T21:03:19.369Z,3.80
2019-02-16T21:06:11.648Z,3.90
2019-02-16T21:09:20.474Z,3.80
2019-02-16T21:11:56.071Z,3.60
2019-02-16T21:14:53.715Z,3.60
2019-02-16T21:17:48.970Z,3.50
2019-02-16T21:20:32.325Z,3.40
2019-02-16T21:23:20.641Z,3.50
2019-02-16T21:26:01.080Z,3.50
2019-02-16T21:28:41.558Z,3.40
2019-02-16T21:31:31.181Z,3.30
2019-02-16T21:34:23.524Z,3.20
2019-02-16T21:37:20.116Z,3.20
2019-02-16T21:39:55.747Z,3.10
2019-02-16T21:42:46.307Z,3.00
2019-02-16T21:45:33.089Z,2.80
2019-02-16T21:48:25.527Z,2.70
2019-02-16T21:51:13.442Z,2.80
2019-02-16T21:54:08.920Z,2.80
2019-02-16T21:56:55.585Z,3.00
2019-02-16T21:59:55.043Z,3.00
2019-02-16T22:02:48.011Z,2.80
2019-02-16T22:05:37.292Z,2.90
2019-02-16T22:08:31.810Z,2.90
2019-02-16T22:11:11.311Z,2.80
2019-02-16T22:13:42.088Z,2.70
2019-02-16T22:16:12.632Z,2.60
2019-02-16T22:18:43.229Z,2.60
2019-02-16T22:21:13.773Z,2.60
2019-02-16T22:23:44.271Z,2.50
2019-02-16T22:26:14.873Z,2.50
2019-02-16T22:28:45.479Z,2.50
2019-02-16T22:31:17.803Z,2.40
2019-02-16T22:33:48.545Z,2.50
2019-02-16T22:36:19.089Z,2.40
2019-02-16T22:38:49.706Z,2.30
2019-02-16T22:41:20.165Z,2.30
2019-02-16T22:43:50.546Z,2.20
2019-02-16T22:46:21.680Z,2.20
2019-02-16T22:48:52.458Z,2.10
2019-02-16T22:51:23.121Z,2.10
2019-02-16T22:53:53.628Z,2.00
2019-02-16T22:56:24.072Z,1.90
2019-02-16T22:58:54.641Z,1.90
2019-02-16T23:01:25.311Z,2.00
2019-02-16T23:03:55.806Z,1.90
2019-02-16T23:06:27.646Z,1.90
2019-02-16T23:08:58.329Z,1.80
2019-02-16T23:11:29.005Z,1.80
2019-02-16T23:13:59.502Z,1.70
2019-02-16T23:16:30.408Z,1.70
2019-02-16T23:19:01.077Z,1.70
2019-02-16T23:21:31.741Z,1.70
2019-02-16T23:24:03.406Z,1.80
2019-02-16T23:26:33.987Z,1.90
2019-02-16T23:29:04.527Z,1.80
2019-02-16T23:31:35.470Z,1.70
2019-02-16T23:34:06.129Z,1.60
2019-02-16T23:36:36.587Z,1.50
2019-02-16T23:39:08.810Z,1.50
2019-02-16T23:41:40.559Z,1.40
2019-02-16T23:44:11.055Z,1.40
2019-02-16T23:46:42.062Z,1.40
2019-02-16T23:49:12.731Z,1.40
2019-02-16T23:51:43.372Z,1.30
2019-02-16T23:54:13.771Z,1.20
2019-02-16T23:56:44.572Z,1.20
2019-02-16T23:59:15.146Z,1.10
